Saint George, Bermuda

9:02 PM AST op 25 februari 2017 (GMT -0400)
Bermuda International | | Change Station

Hoogte 10 ft 32.37 °N, 64.68 °W | Updated 7 minutes ago

Mostly Cloudy
Merendeels bewolkt
70 °F
Voelt als 70 °F
N
13
Wind Variabel Wind van ZZW

Vandaag
Hoog -- | Laag -- °F
--% Kans op neerslag
Gisteren
Hoog -- | Laag -- °F
Precip. -- inches
Druk 29.95 inches
Zicht 6.2 mijlen
Wolken Licht bewolkt 600 ft
Merendeels bewolkt 1700 ft
Merendeels bewolkt 30000 ft
Dauwpunt 66 °F
Vochtigheid 88%
Neerslag 0.00 inches
Dikte sneeuw Niet beschikbaar.
6:50 AM 6:13 PM
Afnemende halvemaan, 0% visible
METAR TXKF 260055Z 21011KT 9999 SCT006 BKN017 BKN300 21/19 Q1014 RMK SCT006 V BKN
Druk 29.95 inches
Zicht 6.2 mijlen
Wolken Licht bewolkt 600 ft
Merendeels bewolkt 1700 ft
Merendeels bewolkt 30000 ft
Dauwpunt 66 °F
Vochtigheid 88%
Neerslag 0.00 inches
Dikte sneeuw Niet beschikbaar.
6:50 AM 6:13 PM
Afnemende halvemaan, 0% visible
METAR TXKF 260055Z 21011KT 9999 SCT006 BKN017 BKN300 21/19 Q1014 RMK SCT006 V BKN

Get Your Daily Forecast Email!

Thanks for signing up!

Be on the lookout for a verification email in your inbox.

You'll start receiving the daily forecast at 8 AM.

×

10-Day Weather Forecast

No radar image for this location.
×

Almanac

Astronomie

Feb. 25, 2017 Opkomst Ondergang
Werkelijke tijd
Burgerlijke schemering
Nautische schemering
Astronomische schemering
Maan
Golflengte van het zichtbare licht
Daglengte
Tomorrow will be .
, % of the Moon is Illuminated

Extremen vandaag

Country Highs Country Lows

Community

WunderPhotos

Upload Photos

1,962,540 foto’s ge-upload!

WunderBlog® & News

Nearby

Luchtkwaliteit

  Luchtkwaliteit LK-index Verontreinigende stof
Not available.

Dikte sneeuw

Station Depth Geometrische hoogte

Aardbevingen

Stad Distance Mag. Time & Date
Minimum magnitude displayed is 2.5.

Watertemperatuur langs de kust

Plaats Temperatuur

Stations

Nabije weerstations

Locatie station Temp. Gevoelstemperatuur Dauwpunt Vochtigheid Wind Precip. Hoogte Geactualiseerd Type